sensor_id;sensor_type;location;lat;lon;timestamp;P1;durP1;ratioP1;P2;durP2;ratioP2
40501;SDS011;29631;49.168;9.848;2022-07-29T00:00:05;2.25;;;1.95;;
40501;SDS011;29631;49.168;9.848;2022-07-29T00:02:33;2.40;;;2.20;;
40501;SDS011;29631;49.168;9.848;2022-07-29T00:04:59;2.65;;;2.22;;
40501;SDS011;29631;49.168;9.848;2022-07-29T00:07:25;2.42;;;2.20;;
40501;SDS011;29631;49.168;9.848;2022-07-29T00:09:51;3.90;;;2.30;;
40501;SDS011;29631;49.168;9.848;2022-07-29T00:12:18;2.13;;;2.03;;
40501;SDS011;29631;49.168;9.848;2022-07-29T00:14:45;2.25;;;2.05;;
40501;SDS011;29631;49.168;9.848;2022-07-29T00:17:11;2.17;;;1.90;;
40501;SDS011;29631;49.168;9.848;2022-07-29T00:19:36;2.47;;;2.20;;
40501;SDS011;29631;49.168;9.848;2022-07-29T00:22:02;2.63;;;2.20;;
40501;SDS011;29631;49.168;9.848;2022-07-29T00:24:28;2.20;;;2.10;;
40501;SDS011;29631;49.168;9.848;2022-07-29T00:26:54;2.28;;;2.17;;
40501;SDS011;29631;49.168;9.848;2022-07-29T00:29:20;2.08;;;1.98;;
40501;SDS011;29631;49.168;9.848;2022-07-29T00:31:45;3.33;;;2.28;;
40501;SDS011;29631;49.168;9.848;2022-07-29T00:34:11;2.38;;;2.17;;
40501;SDS011;29631;49.168;9.848;2022-07-29T00:36:55;2.17;;;2.08;;
40501;SDS011;29631;49.168;9.848;2022-07-29T00:39:22;2.30;;;2.10;;
40501;SDS011;29631;49.168;9.848;2022-07-29T00:41:48;2.42;;;2.22;;
40501;SDS011;29631;49.168;9.848;2022-07-29T00:44:14;2.60;;;2.50;;
40501;SDS011;29631;49.168;9.848;2022-07-29T00:46:40;2.42;;;2.30;;
40501;SDS011;29631;49.168;9.848;2022-07-29T00:49:06;2.05;;;1.95;;
40501;SDS011;29631;49.168;9.848;2022-07-29T00:51:32;2.15;;;2.05;;
40501;SDS011;29631;49.168;9.848;2022-07-29T00:54:01;2.25;;;2.15;;
40501;SDS011;29631;49.168;9.848;2022-07-29T00:56:32;2.92;;;2.63;;
40501;SDS011;29631;49.168;9.848;2022-07-29T00:58:59;2.35;;;2.25;;
40501;SDS011;29631;49.168;9.848;2022-07-29T01:01:25;2.47;;;2.38;;
40501;SDS011;29631;49.168;9.848;2022-07-29T01:03:51;2.28;;;2.08;;
40501;SDS011;29631;49.168;9.848;2022-07-29T01:06:17;2.60;;;2.40;;
40501;SDS011;29631;49.168;9.848;2022-07-29T01:08:47;2.80;;;2.60;;
40501;SDS011;29631;49.168;9.848;2022-07-29T01:11:14;3.15;;;2.25;;
40501;SDS011;29631;49.168;9.848;2022-07-29T01:13:42;2.38;;;2.28;;
40501;SDS011;29631;49.168;9.848;2022-07-29T01:16:21;2.25;;;1.95;;
40501;SDS011;29631;49.168;9.848;2022-07-29T01:19:00;2.58;;;2.40;;
40501;SDS011;29631;49.168;9.848;2022-07-29T01:21:51;2.47;;;2.30;;
40501;SDS011;29631;49.168;9.848;2022-07-29T01:30:32;2.35;;;2.22;;
40501;SDS011;29631;49.168;9.848;2022-07-29T01:33:03;2.33;;;2.22;;
40501;SDS011;29631;49.168;9.848;2022-07-29T01:36:01;2.25;;;2.15;;
40501;SDS011;29631;49.168;9.848;2022-07-29T01:38:35;3.15;;;2.15;;
40501;SDS011;29631;49.168;9.848;2022-07-29T01:41:07;2.83;;;2.63;;
40501;SDS011;29631;49.168;9.848;2022-07-29T01:43:57;2.47;;;2.28;;
40501;SDS011;29631;49.168;9.848;2022-07-29T01:46:30;3.50;;;2.25;;
40501;SDS011;29631;49.168;9.848;2022-07-29T01:49:22;2.38;;;2.28;;
40501;SDS011;29631;49.168;9.848;2022-07-29T01:52:05;2.45;;;2.30;;
40501;SDS011;29631;49.168;9.848;2022-07-29T01:54:47;2.50;;;2.38;;
40501;SDS011;29631;49.168;9.848;2022-07-29T01:57:19;3.17;;;2.40;;
40501;SDS011;29631;49.168;9.848;2022-07-29T01:59:51;2.50;;;2.40;;
40501;SDS011;29631;49.168;9.848;2022-07-29T02:02:19;2.25;;;2.15;;
40501;SDS011;29631;49.168;9.848;2022-07-29T02:04:47;2.72;;;2.53;;
40501;SDS011;29631;49.168;9.848;2022-07-29T02:07:15;2.60;;;2.50;;
40501;SDS011;29631;49.168;9.848;2022-07-29T02:09:45;2.50;;;2.40;;
40501;SDS011;29631;49.168;9.848;2022-07-29T02:12:14;2.30;;;2.10;;
40501;SDS011;29631;49.168;9.848;2022-07-29T02:14:50;2.38;;;2.28;;
40501;SDS011;29631;49.168;9.848;2022-07-29T02:17:26;2.67;;;2.47;;
40501;SDS011;29631;49.168;9.848;2022-07-29T02:19:59;3.17;;;2.50;;
40501;SDS011;29631;49.168;9.848;2022-07-29T02:22:28;2.80;;;2.60;;
40501;SDS011;29631;49.168;9.848;2022-07-29T02:24:57;2.80;;;2.60;;
40501;SDS011;29631;49.168;9.848;2022-07-29T02:27:24;3.83;;;2.70;;
40501;SDS011;29631;49.168;9.848;2022-07-29T02:29:52;3.58;;;2.75;;
40501;SDS011;29631;49.168;9.848;2022-07-29T02:32:19;2.70;;;2.60;;
40501;SDS011;29631;49.168;9.848;2022-07-29T02:34:48;3.50;;;2.80;;
40501;SDS011;29631;49.168;9.848;2022-07-29T02:37:16;3.35;;;2.60;;
40501;SDS011;29631;49.168;9.848;2022-07-29T02:39:43;2.58;;;2.38;;
40501;SDS011;29631;49.168;9.848;2022-07-29T02:42:13;2.80;;;2.53;;
40501;SDS011;29631;49.168;9.848;2022-07-29T02:44:42;2.65;;;2.55;;
40501;SDS011;29631;49.168;9.848;2022-07-29T02:47:22;2.80;;;2.60;;
40501;SDS011;29631;49.168;9.848;2022-07-29T02:50:20;2.75;;;2.60;;
40501;SDS011;29631;49.168;9.848;2022-07-29T02:53:05;2.92;;;2.72;;
40501;SDS011;29631;49.168;9.848;2022-07-29T02:55:43;3.00;;;2.80;;
40501;SDS011;29631;49.168;9.848;2022-07-29T02:59:06;2.80;;;2.60;;
40501;SDS011;29631;49.168;9.848;2022-07-29T03:01:20;2.50;;;2.40;;
40501;SDS011;29631;49.168;9.848;2022-07-29T03:03:49;2.63;;;2.53;;
40501;SDS011;29631;49.168;9.848;2022-07-29T03:06:18;3.10;;;2.90;;
40501;SDS011;29631;49.168;9.848;2022-07-29T03:08:47;2.95;;;2.80;;
40501;SDS011;29631;49.168;9.848;2022-07-29T03:11:14;2.58;;;2.47;;
40501;SDS011;29631;49.168;9.848;2022-07-29T03:13:41;2.63;;;2.53;;
40501;SDS011;29631;49.168;9.848;2022-07-29T03:16:08;2.72;;;2.55;;
40501;SDS011;29631;49.168;9.848;2022-07-29T03:18:35;2.95;;;2.78;;
40501;SDS011;29631;49.168;9.848;2022-07-29T03:21:02;3.97;;;2.70;;
40501;SDS011;29631;49.168;9.848;2022-07-29T03:23:28;3.42;;;3.13;;
40501;SDS011;29631;49.168;9.848;2022-07-29T03:25:54;3.20;;;3.00;;
40501;SDS011;29631;49.168;9.848;2022-07-29T03:28:21;3.10;;;2.90;;
40501;SDS011;29631;49.168;9.848;2022-07-29T03:30:47;3.63;;;3.33;;
40501;SDS011;29631;49.168;9.848;2022-07-29T03:33:14;3.90;;;3.60;;
40501;SDS011;29631;49.168;9.848;2022-07-29T03:35:40;3.80;;;3.50;;
40501;SDS011;29631;49.168;9.848;2022-07-29T03:38:06;4.22;;;3.83;;
40501;SDS011;29631;49.168;9.848;2022-07-29T03:40:33;4.35;;;3.67;;
40501;SDS011;29631;49.168;9.848;2022-07-29T03:43:05;3.65;;;3.45;;
40501;SDS011;29631;49.168;9.848;2022-07-29T03:45:33;4.15;;;3.75;;
40501;SDS011;29631;49.168;9.848;2022-07-29T03:48:01;3.38;;;3.10;;
40501;SDS011;29631;49.168;9.848;2022-07-29T03:50:33;3.42;;;3.17;;
40501;SDS011;29631;49.168;9.848;2022-07-29T03:53:00;3.60;;;3.30;;
40501;SDS011;29631;49.168;9.848;2022-07-29T03:55:28;2.90;;;2.80;;
40501;SDS011;29631;49.168;9.848;2022-07-29T03:58:00;3.03;;;2.83;;
40501;SDS011;29631;49.168;9.848;2022-07-29T04:00:27;4.07;;;3.67;;
40501;SDS011;29631;49.168;9.848;2022-07-29T04:02:53;3.40;;;3.20;;
40501;SDS011;29631;49.168;9.848;2022-07-29T04:05:19;4.43;;;4.13;;
40501;SDS011;29631;49.168;9.848;2022-07-29T04:07:45;3.50;;;3.20;;
40501;SDS011;29631;49.168;9.848;2022-07-29T04:10:14;3.45;;;3.25;;
40501;SDS011;29631;49.168;9.848;2022-07-29T04:12:41;3.55;;;3.25;;
40501;SDS011;29631;49.168;9.848;2022-07-29T04:15:08;4.03;;;3.22;;
40501;SDS011;29631;49.168;9.848;2022-07-29T04:17:34;3.47;;;3.13;;
40501;SDS011;29631;49.168;9.848;2022-07-29T04:20:00;4.10;;;3.80;;
40501;SDS011;29631;49.168;9.848;2022-07-29T04:22:26;3.97;;;3.70;;
40501;SDS011;29631;49.168;9.848;2022-07-29T04:24:51;4.30;;;3.67;;
40501;SDS011;29631;49.168;9.848;2022-07-29T04:27:17;3.38;;;3.17;;
40501;SDS011;29631;49.168;9.848;2022-07-29T04:29:43;3.42;;;3.22;;
40501;SDS011;29631;49.168;9.848;2022-07-29T04:32:09;3.42;;;3.13;;
40501;SDS011;29631;49.168;9.848;2022-07-29T04:34:34;3.35;;;3.15;;
40501;SDS011;29631;49.168;9.848;2022-07-29T04:37:00;3.25;;;2.85;;
40501;SDS011;29631;49.168;9.848;2022-07-29T04:39:26;2.97;;;2.88;;
40501;SDS011;29631;49.168;9.848;2022-07-29T04:41:51;3.70;;;3.40;;
40501;SDS011;29631;49.168;9.848;2022-07-29T04:44:17;3.58;;;3.30;;
40501;SDS011;29631;49.168;9.848;2022-07-29T04:46:43;3.50;;;3.30;;
40501;SDS011;29631;49.168;9.848;2022-07-29T04:49:09;3.70;;;3.47;;
40501;SDS011;29631;49.168;9.848;2022-07-29T04:51:35;3.35;;;3.25;;
40501;SDS011;29631;49.168;9.848;2022-07-29T04:54:00;4.68;;;3.20;;
40501;SDS011;29631;49.168;9.848;2022-07-29T04:56:26;4.18;;;3.83;;
40501;SDS011;29631;49.168;9.848;2022-07-29T04:58:52;4.00;;;3.70;;
40501;SDS011;29631;49.168;9.848;2022-07-29T05:01:18;4.00;;;3.60;;
40501;SDS011;29631;49.168;9.848;2022-07-29T05:03:44;4.57;;;3.50;;
40501;SDS011;29631;49.168;9.848;2022-07-29T05:06:10;3.22;;;3.03;;
40501;SDS011;29631;49.168;9.848;2022-07-29T05:08:36;3.20;;;3.00;;
40501;SDS011;29631;49.168;9.848;2022-07-29T05:11:02;4.10;;;3.20;;
40501;SDS011;29631;49.168;9.848;2022-07-29T05:13:28;4.03;;;3.30;;
40501;SDS011;29631;49.168;9.848;2022-07-29T05:15:54;3.30;;;3.05;;
40501;SDS011;29631;49.168;9.848;2022-07-29T05:18:20;3.47;;;3.17;;
40501;SDS011;29631;49.168;9.848;2022-07-29T05:20:46;3.28;;;3.05;;
40501;SDS011;29631;49.168;9.848;2022-07-29T05:23:13;4.30;;;3.28;;
40501;SDS011;29631;49.168;9.848;2022-07-29T05:25:39;4.15;;;3.05;;
40501;SDS011;29631;49.168;9.848;2022-07-29T05:28:05;3.00;;;2.80;;
40501;SDS011;29631;49.168;9.848;2022-07-29T05:30:31;3.08;;;2.95;;
40501;SDS011;29631;49.168;9.848;2022-07-29T05:32:56;2.97;;;2.78;;
40501;SDS011;29631;49.168;9.848;2022-07-29T05:35:22;3.55;;;3.28;;
40501;SDS011;29631;49.168;9.848;2022-07-29T05:37:48;3.45;;;3.08;;
40501;SDS011;29631;49.168;9.848;2022-07-29T05:40:13;2.85;;;2.70;;
40501;SDS011;29631;49.168;9.848;2022-07-29T05:42:40;3.40;;;3.10;;
40501;SDS011;29631;49.168;9.848;2022-07-29T05:45:06;3.08;;;2.88;;
40501;SDS011;29631;49.168;9.848;2022-07-29T05:47:32;3.40;;;3.15;;
40501;SDS011;29631;49.168;9.848;2022-07-29T05:49:58;3.67;;;3.20;;
40501;SDS011;29631;49.168;9.848;2022-07-29T05:52:24;3.15;;;2.95;;
40501;SDS011;29631;49.168;9.848;2022-07-29T05:54:49;3.15;;;3.00;;
40501;SDS011;29631;49.168;9.848;2022-07-29T05:57:16;3.50;;;3.20;;
40501;SDS011;29631;49.168;9.848;2022-07-29T05:59:42;3.80;;;3.17;;
40501;SDS011;29631;49.168;9.848;2022-07-29T06:02:08;3.22;;;3.03;;
40501;SDS011;29631;49.168;9.848;2022-07-29T06:04:34;3.88;;;3.65;;
40501;SDS011;29631;49.168;9.848;2022-07-29T06:07:00;3.90;;;3.40;;
40501;SDS011;29631;49.168;9.848;2022-07-29T06:09:26;3.83;;;3.20;;
40501;SDS011;29631;49.168;9.848;2022-07-29T06:11:52;6.80;;;3.03;;
40501;SDS011;29631;49.168;9.848;2022-07-29T06:14:18;2.95;;;2.78;;
40501;SDS011;29631;49.168;9.848;2022-07-29T06:16:44;3.92;;;3.03;;
40501;SDS011;29631;49.168;9.848;2022-07-29T06:19:11;3.20;;;3.00;;
40501;SDS011;29631;49.168;9.848;2022-07-29T06:21:40;3.38;;;3.10;;
40501;SDS011;29631;49.168;9.848;2022-07-29T06:24:08;4.50;;;2.80;;
40501;SDS011;29631;49.168;9.848;2022-07-29T06:26:35;3.22;;;2.92;;
40501;SDS011;29631;49.168;9.848;2022-07-29T06:29:01;2.88;;;2.67;;
40501;SDS011;29631;49.168;9.848;2022-07-29T06:31:27;5.13;;;2.90;;
40501;SDS011;29631;49.168;9.848;2022-07-29T06:33:52;5.22;;;2.75;;
40501;SDS011;29631;49.168;9.848;2022-07-29T06:36:18;3.72;;;3.10;;
40501;SDS011;29631;49.168;9.848;2022-07-29T06:38:44;3.47;;;2.55;;
40501;SDS011;29631;49.168;9.848;2022-07-29T06:41:10;5.22;;;2.85;;
40501;SDS011;29631;49.168;9.848;2022-07-29T06:43:38;3.17;;;2.50;;
40501;SDS011;29631;49.168;9.848;2022-07-29T06:46:15;2.92;;;2.60;;
40501;SDS011;29631;49.168;9.848;2022-07-29T06:48:43;2.65;;;2.50;;
40501;SDS011;29631;49.168;9.848;2022-07-29T06:51:09;2.88;;;2.67;;
40501;SDS011;29631;49.168;9.848;2022-07-29T06:53:38;2.38;;;2.28;;
40501;SDS011;29631;49.168;9.848;2022-07-29T06:56:05;2.92;;;2.30;;
40501;SDS011;29631;49.168;9.848;2022-07-29T06:58:33;2.65;;;2.55;;
40501;SDS011;29631;49.168;9.848;2022-07-29T07:01:03;2.40;;;2.30;;
40501;SDS011;29631;49.168;9.848;2022-07-29T07:03:31;2.70;;;2.50;;
40501;SDS011;29631;49.168;9.848;2022-07-29T07:05:58;2.88;;;2.38;;
40501;SDS011;29631;49.168;9.848;2022-07-29T07:08:24;3.17;;;2.53;;
40501;SDS011;29631;49.168;9.848;2022-07-29T07:10:50;2.88;;;2.55;;
40501;SDS011;29631;49.168;9.848;2022-07-29T07:13:17;2.45;;;2.33;;
40501;SDS011;29631;49.168;9.848;2022-07-29T07:15:44;2.50;;;2.30;;
40501;SDS011;29631;49.168;9.848;2022-07-29T07:18:12;2.63;;;2.42;;
40501;SDS011;29631;49.168;9.848;2022-07-29T07:20:38;2.45;;;2.30;;
40501;SDS011;29631;49.168;9.848;2022-07-29T07:23:04;2.15;;;2.05;;
40501;SDS011;29631;49.168;9.848;2022-07-29T07:25:29;2.38;;;2.22;;
40501;SDS011;29631;49.168;9.848;2022-07-29T07:27:55;2.30;;;2.20;;
40501;SDS011;29631;49.168;9.848;2022-07-29T07:30:21;2.22;;;2.13;;
40501;SDS011;29631;49.168;9.848;2022-07-29T07:32:47;2.20;;;2.00;;
40501;SDS011;29631;49.168;9.848;2022-07-29T07:35:13;2.20;;;2.10;;
40501;SDS011;29631;49.168;9.848;2022-07-29T07:37:39;2.20;;;2.10;;
40501;SDS011;29631;49.168;9.848;2022-07-29T07:40:08;2.33;;;2.22;;
40501;SDS011;29631;49.168;9.848;2022-07-29T07:42:39;1.85;;;1.80;;
40501;SDS011;29631;49.168;9.848;2022-07-29T07:45:06;2.45;;;2.30;;
40501;SDS011;29631;49.168;9.848;2022-07-29T07:47:37;2.47;;;2.38;;
40501;SDS011;29631;49.168;9.848;2022-07-29T07:50:07;5.13;;;2.47;;
40501;SDS011;29631;49.168;9.848;2022-07-29T07:52:37;2.30;;;2.00;;
40501;SDS011;29631;49.168;9.848;2022-07-29T07:55:20;5.88;;;2.78;;
40501;SDS011;29631;49.168;9.848;2022-07-29T07:57:46;2.53;;;2.33;;
40501;SDS011;29631;49.168;9.848;2022-07-29T08:00:12;2.85;;;2.60;;
40501;SDS011;29631;49.168;9.848;2022-07-29T08:02:39;4.95;;;2.35;;
40501;SDS011;29631;49.168;9.848;2022-07-29T08:05:08;3.80;;;2.60;;
40501;SDS011;29631;49.168;9.848;2022-07-29T08:07:35;2.75;;;2.20;;
40501;SDS011;29631;49.168;9.848;2022-07-29T08:10:00;4.28;;;2.20;;
40501;SDS011;29631;49.168;9.848;2022-07-29T08:12:26;5.70;;;2.83;;
40501;SDS011;29631;49.168;9.848;2022-07-29T08:14:52;4.07;;;2.20;;
40501;SDS011;29631;49.168;9.848;2022-07-29T08:17:18;2.67;;;2.50;;
40501;SDS011;29631;49.168;9.848;2022-07-29T08:19:44;2.90;;;2.25;;
40501;SDS011;29631;49.168;9.848;2022-07-29T08:22:10;2.30;;;2.10;;
40501;SDS011;29631;49.168;9.848;2022-07-29T08:24:36;2.40;;;2.20;;
40501;SDS011;29631;49.168;9.848;2022-07-29T08:27:08;4.68;;;2.33;;
40501;SDS011;29631;49.168;9.848;2022-07-29T08:29:35;1.73;;;1.63;;
40501;SDS011;29631;49.168;9.848;2022-07-29T08:32:02;2.00;;;1.90;;
40501;SDS011;29631;49.168;9.848;2022-07-29T08:34:28;2.03;;;1.92;;
40501;SDS011;29631;49.168;9.848;2022-07-29T08:36:55;1.70;;;1.70;;
40501;SDS011;29631;49.168;9.848;2022-07-29T08:39:21;2.45;;;1.73;;
40501;SDS011;29631;49.168;9.848;2022-07-29T08:41:48;2.00;;;1.90;;
40501;SDS011;29631;49.168;9.848;2022-07-29T08:44:15;2.15;;;1.88;;
40501;SDS011;29631;49.168;9.848;2022-07-29T08:46:42;2.00;;;1.90;;
40501;SDS011;29631;49.168;9.848;2022-07-29T08:49:08;2.20;;;2.10;;
40501;SDS011;29631;49.168;9.848;2022-07-29T08:51:34;2.05;;;1.95;;
40501;SDS011;29631;49.168;9.848;2022-07-29T08:54:03;1.83;;;1.73;;
40501;SDS011;29631;49.168;9.848;2022-07-29T08:56:30;2.30;;;2.10;;
40501;SDS011;29631;49.168;9.848;2022-07-29T08:58:56;1.90;;;1.85;;
40501;SDS011;29631;49.168;9.848;2022-07-29T09:01:24;2.45;;;2.10;;
40501;SDS011;29631;49.168;9.848;2022-07-29T09:03:54;2.10;;;2.00;;
40501;SDS011;29631;49.168;9.848;2022-07-29T09:06:21;2.10;;;2.00;;
40501;SDS011;29631;49.168;9.848;2022-07-29T09:08:52;1.90;;;1.90;;
40501;SDS011;29631;49.168;9.848;2022-07-29T09:11:23;3.47;;;2.70;;
40501;SDS011;29631;49.168;9.848;2022-07-29T09:13:49;2.10;;;1.92;;
40501;SDS011;29631;49.168;9.848;2022-07-29T09:16:15;2.45;;;2.35;;
40501;SDS011;29631;49.168;9.848;2022-07-29T09:18:41;2.30;;;2.20;;
40501;SDS011;29631;49.168;9.848;2022-07-29T09:21:10;2.33;;;2.22;;
40501;SDS011;29631;49.168;9.848;2022-07-29T09:26:39;3.88;;;2.03;;
40501;SDS011;29631;49.168;9.848;2022-07-29T09:29:09;2.00;;;1.90;;
40501;SDS011;29631;49.168;9.848;2022-07-29T09:31:47;2.05;;;1.95;;
40501;SDS011;29631;49.168;9.848;2022-07-29T09:34:16;2.33;;;2.13;;
40501;SDS011;29631;49.168;9.848;2022-07-29T09:36:49;2.47;;;2.20;;
40501;SDS011;29631;49.168;9.848;2022-07-29T09:39:25;2.00;;;1.90;;
40501;SDS011;29631;49.168;9.848;2022-07-29T09:42:10;2.05;;;1.95;;
40501;SDS011;29631;49.168;9.848;2022-07-29T09:44:47;2.38;;;2.17;;
40501;SDS011;29631;49.168;9.848;2022-07-29T09:47:15;2.05;;;1.95;;
40501;SDS011;29631;49.168;9.848;2022-07-29T09:49:59;1.92;;;1.83;;
40501;SDS011;29631;49.168;9.848;2022-07-29T09:52:26;1.90;;;1.90;;
40501;SDS011;29631;49.168;9.848;2022-07-29T09:55:03;2.05;;;1.98;;
40501;SDS011;29631;49.168;9.848;2022-07-29T09:57:34;2.17;;;2.08;;
40501;SDS011;29631;49.168;9.848;2022-07-29T10:02:32;3.70;;;2.30;;
40501;SDS011;29631;49.168;9.848;2022-07-29T10:05:01;2.25;;;2.10;;
40501;SDS011;29631;49.168;9.848;2022-07-29T10:10:25;2.30;;;2.20;;
40501;SDS011;29631;49.168;9.848;2022-07-29T10:12:55;1.83;;;1.83;;
40501;SDS011;29631;49.168;9.848;2022-07-29T10:15:24;1.77;;;1.77;;
40501;SDS011;29631;49.168;9.848;2022-07-29T10:17:54;2.53;;;2.20;;
40501;SDS011;29631;49.168;9.848;2022-07-29T10:20:21;3.30;;;2.08;;
40501;SDS011;29631;49.168;9.848;2022-07-29T10:22:48;2.20;;;2.10;;
40501;SDS011;29631;49.168;9.848;2022-07-29T10:25:15;2.67;;;2.30;;
40501;SDS011;29631;49.168;9.848;2022-07-29T10:27:42;2.20;;;2.10;;
40501;SDS011;29631;49.168;9.848;2022-07-29T10:30:09;2.33;;;2.03;;
40501;SDS011;29631;49.168;9.848;2022-07-29T10:37:42;2.40;;;2.30;;
40501;SDS011;29631;49.168;9.848;2022-07-29T10:43:36;2.05;;;1.95;;
40501;SDS011;29631;49.168;9.848;2022-07-29T10:46:07;2.22;;;1.95;;
40501;SDS011;29631;49.168;9.848;2022-07-29T10:48:35;1.80;;;1.80;;
40501;SDS011;29631;49.168;9.848;2022-07-29T10:51:02;2.30;;;2.20;;
40501;SDS011;29631;49.168;9.848;2022-07-29T10:56:23;2.00;;;2.00;;
40501;SDS011;29631;49.168;9.848;2022-07-29T11:01:51;2.13;;;2.03;;
40501;SDS011;29631;49.168;9.848;2022-07-29T11:07:24;2.08;;;1.98;;
40501;SDS011;29631;49.168;9.848;2022-07-29T11:15:14;2.30;;;2.20;;
40501;SDS011;29631;49.168;9.848;2022-07-29T11:23:30;7.65;;;2.10;;
40501;SDS011;29631;49.168;9.848;2022-07-29T11:29:03;1.80;;;1.70;;
40501;SDS011;29631;49.168;9.848;2022-07-29T11:31:41;1.90;;;1.80;;
40501;SDS011;29631;49.168;9.848;2022-07-29T11:34:20;2.05;;;1.88;;
40501;SDS011;29631;49.168;9.848;2022-07-29T11:39:36;2.33;;;2.22;;
40501;SDS011;29631;49.168;9.848;2022-07-29T11:45:00;3.05;;;2.22;;
40501;SDS011;29631;49.168;9.848;2022-07-29T11:47:30;2.10;;;2.00;;
40501;SDS011;29631;49.168;9.848;2022-07-29T11:49:59;5.63;;;2.40;;
40501;SDS011;29631;49.168;9.848;2022-07-29T11:52:32;2.30;;;2.20;;
40501;SDS011;29631;49.168;9.848;2022-07-29T11:55:02;2.53;;;2.42;;
40501;SDS011;29631;49.168;9.848;2022-07-29T11:57:31;3.42;;;2.40;;
40501;SDS011;29631;49.168;9.848;2022-07-29T11:59:59;4.28;;;2.00;;
40501;SDS011;29631;49.168;9.848;2022-07-29T12:02:25;11.52;;;2.58;;
40501;SDS011;29631;49.168;9.848;2022-07-29T12:05:08;3.05;;;2.60;;
40501;SDS011;29631;49.168;9.848;2022-07-29T12:07:36;4.57;;;2.13;;
40501;SDS011;29631;49.168;9.848;2022-07-29T12:10:04;4.13;;;2.40;;
40501;SDS011;29631;49.168;9.848;2022-07-29T12:12:32;5.55;;;2.13;;
40501;SDS011;29631;49.168;9.848;2022-07-29T12:15:10;2.25;;;2.00;;
40501;SDS011;29631;49.168;9.848;2022-07-29T12:17:42;2.30;;;2.20;;
40501;SDS011;29631;49.168;9.848;2022-07-29T12:20:08;2.40;;;2.17;;
40501;SDS011;29631;49.168;9.848;2022-07-29T12:22:39;2.30;;;2.20;;
40501;SDS011;29631;49.168;9.848;2022-07-29T12:25:12;6.15;;;2.60;;
40501;SDS011;29631;49.168;9.848;2022-07-29T12:27:43;3.10;;;2.70;;
40501;SDS011;29631;49.168;9.848;2022-07-29T12:30:11;3.47;;;2.28;;
40501;SDS011;29631;49.168;9.848;2022-07-29T12:32:44;2.60;;;2.40;;
40501;SDS011;29631;49.168;9.848;2022-07-29T12:35:12;2.35;;;2.25;;
40501;SDS011;29631;49.168;9.848;2022-07-29T12:37:41;2.45;;;2.22;;
40501;SDS011;29631;49.168;9.848;2022-07-29T12:40:10;2.63;;;2.25;;
40501;SDS011;29631;49.168;9.848;2022-07-29T12:42:39;2.55;;;2.35;;
40501;SDS011;29631;49.168;9.848;2022-07-29T12:45:05;3.28;;;2.70;;
40501;SDS011;29631;49.168;9.848;2022-07-29T12:47:32;3.45;;;2.60;;
40501;SDS011;29631;49.168;9.848;2022-07-29T12:50:15;3.25;;;2.90;;
40501;SDS011;29631;49.168;9.848;2022-07-29T12:52:42;2.95;;;2.38;;
40501;SDS011;29631;49.168;9.848;2022-07-29T12:55:10;3.80;;;2.60;;
40501;SDS011;29631;49.168;9.848;2022-07-29T13:00:13;2.60;;;2.50;;
40501;SDS011;29631;49.168;9.848;2022-07-29T13:02:40;2.65;;;2.55;;
40501;SDS011;29631;49.168;9.848;2022-07-29T13:05:08;2.80;;;2.53;;
40501;SDS011;29631;49.168;9.848;2022-07-29T13:07:37;3.30;;;3.00;;
40501;SDS011;29631;49.168;9.848;2022-07-29T13:10:14;4.28;;;3.15;;
40501;SDS011;29631;49.168;9.848;2022-07-29T13:15:31;3.10;;;2.95;;
40501;SDS011;29631;49.168;9.848;2022-07-29T13:17:58;3.78;;;3.00;;
40501;SDS011;29631;49.168;9.848;2022-07-29T13:20:24;5.53;;;2.90;;
40501;SDS011;29631;49.168;9.848;2022-07-29T13:22:54;3.20;;;3.00;;
40501;SDS011;29631;49.168;9.848;2022-07-29T13:25:30;3.58;;;2.88;;
40501;SDS011;29631;49.168;9.848;2022-07-29T13:27:57;3.15;;;2.83;;
40501;SDS011;29631;49.168;9.848;2022-07-29T13:30:24;3.22;;;3.03;;
40501;SDS011;29631;49.168;9.848;2022-07-29T13:32:51;3.75;;;2.90;;
40501;SDS011;29631;49.168;9.848;2022-07-29T13:35:17;5.38;;;2.80;;
40501;SDS011;29631;49.168;9.848;2022-07-29T13:37:45;3.10;;;2.90;;
40501;SDS011;29631;49.168;9.848;2022-07-29T13:40:11;3.00;;;2.90;;
40501;SDS011;29631;49.168;9.848;2022-07-29T13:42:38;3.78;;;2.80;;
40501;SDS011;29631;49.168;9.848;2022-07-29T13:45:04;3.38;;;3.10;;
40501;SDS011;29631;49.168;9.848;2022-07-29T13:47:31;2.90;;;2.70;;
40501;SDS011;29631;49.168;9.848;2022-07-29T13:49:57;3.50;;;3.20;;
40501;SDS011;29631;49.168;9.848;2022-07-29T13:52:23;4.32;;;3.13;;
40501;SDS011;29631;49.168;9.848;2022-07-29T13:54:48;3.15;;;3.00;;
40501;SDS011;29631;49.168;9.848;2022-07-29T13:57:14;2.78;;;2.58;;
40501;SDS011;29631;49.168;9.848;2022-07-29T13:59:40;3.10;;;2.90;;
40501;SDS011;29631;49.168;9.848;2022-07-29T14:02:07;3.17;;;3.00;;
40501;SDS011;29631;49.168;9.848;2022-07-29T14:04:34;2.97;;;2.78;;
40501;SDS011;29631;49.168;9.848;2022-07-29T14:07:01;4.80;;;2.80;;
40501;SDS011;29631;49.168;9.848;2022-07-29T14:09:28;3.22;;;2.65;;
40501;SDS011;29631;49.168;9.848;2022-07-29T14:11:53;2.75;;;2.55;;
40501;SDS011;29631;49.168;9.848;2022-07-29T14:14:19;3.33;;;2.47;;
40501;SDS011;29631;49.168;9.848;2022-07-29T14:16:45;2.53;;;2.40;;
40501;SDS011;29631;49.168;9.848;2022-07-29T14:19:11;2.67;;;2.50;;
40501;SDS011;29631;49.168;9.848;2022-07-29T14:21:37;2.75;;;2.58;;
40501;SDS011;29631;49.168;9.848;2022-07-29T14:24:04;2.72;;;2.53;;
40501;SDS011;29631;49.168;9.848;2022-07-29T14:26:30;2.80;;;2.65;;
40501;SDS011;29631;49.168;9.848;2022-07-29T14:28:56;2.20;;;2.10;;
40501;SDS011;29631;49.168;9.848;2022-07-29T14:31:22;2.20;;;2.10;;
40501;SDS011;29631;49.168;9.848;2022-07-29T14:33:48;3.78;;;2.13;;
40501;SDS011;29631;49.168;9.848;2022-07-29T14:36:14;3.13;;;2.30;;
40501;SDS011;29631;49.168;9.848;2022-07-29T14:38:39;2.40;;;2.30;;
40501;SDS011;29631;49.168;9.848;2022-07-29T14:41:05;2.58;;;2.08;;
40501;SDS011;29631;49.168;9.848;2022-07-29T14:43:33;2.25;;;2.15;;
40501;SDS011;29631;49.168;9.848;2022-07-29T14:46:02;2.72;;;2.30;;
40501;SDS011;29631;49.168;9.848;2022-07-29T14:48:28;2.92;;;2.65;;
40501;SDS011;29631;49.168;9.848;2022-07-29T14:50:53;3.05;;;2.38;;
40501;SDS011;29631;49.168;9.848;2022-07-29T14:53:20;2.20;;;2.10;;
40501;SDS011;29631;49.168;9.848;2022-07-29T14:55:47;2.28;;;2.15;;
40501;SDS011;29631;49.168;9.848;2022-07-29T14:58:13;2.10;;;2.00;;
40501;SDS011;29631;49.168;9.848;2022-07-29T15:00:39;2.47;;;1.90;;
40501;SDS011;29631;49.168;9.848;2022-07-29T15:03:05;2.10;;;2.00;;
40501;SDS011;29631;49.168;9.848;2022-07-29T15:05:31;1.67;;;1.55;;
40501;SDS011;29631;49.168;9.848;2022-07-29T15:07:57;1.80;;;1.70;;
40501;SDS011;29631;49.168;9.848;2022-07-29T15:10:23;2.30;;;2.20;;
40501;SDS011;29631;49.168;9.848;2022-07-29T15:12:51;2.33;;;2.13;;
40501;SDS011;29631;49.168;9.848;2022-07-29T15:15:18;3.97;;;2.15;;
40501;SDS011;29631;49.168;9.848;2022-07-29T15:17:44;2.10;;;2.00;;
40501;SDS011;29631;49.168;9.848;2022-07-29T15:20:10;3.00;;;2.53;;
40501;SDS011;29631;49.168;9.848;2022-07-29T15:22:36;5.57;;;2.05;;
40501;SDS011;29631;49.168;9.848;2022-07-29T15:25:03;3.35;;;2.10;;
40501;SDS011;29631;49.168;9.848;2022-07-29T15:27:30;1.90;;;1.80;;
40501;SDS011;29631;49.168;9.848;2022-07-29T15:29:56;3.28;;;1.95;;
40501;SDS011;29631;49.168;9.848;2022-07-29T15:32:21;2.13;;;1.95;;
40501;SDS011;29631;49.168;9.848;2022-07-29T15:34:47;2.20;;;2.10;;
40501;SDS011;29631;49.168;9.848;2022-07-29T15:37:13;2.35;;;2.15;;
40501;SDS011;29631;49.168;9.848;2022-07-29T15:39:39;2.58;;;1.85;;
40501;SDS011;29631;49.168;9.848;2022-07-29T15:42:05;1.70;;;1.60;;
40501;SDS011;29631;49.168;9.848;2022-07-29T15:44:30;4.93;;;1.73;;
40501;SDS011;29631;49.168;9.848;2022-07-29T15:46:56;2.00;;;1.90;;
40501;SDS011;29631;49.168;9.848;2022-07-29T15:49:29;1.83;;;1.73;;
40501;SDS011;29631;49.168;9.848;2022-07-29T15:52:03;1.60;;;1.60;;